KGYR/GYR METAR and TAF weather

Enter ICAO airport designator
Station Type Date Time Source
KGYR METAR 2022/06/28 23:47 UTC NOAA

KGYR 282347Z 10008G15KT 10SM SCT100 SCT200 41/14 A2985


Station Type Date Time Source
KGYR Decoded METAR 2022/06/28 23:47 UTC NOAA

Goodyear Municipal, AZ, United States (KGYR) 33-25N 112-23W
Jun 28, 2022 - 07:47 PM EDT / 2022.06.28 2347 UTC
Wind: from the E (100 degrees) at 9 MPH (8 KT) gusting to 17 MPH (15 KT):0
Visibility: 10 mile(s):0
Sky conditions: partly cloudy
Temperature: 105 F (41 C)
Heat index: 104.4 F (40.2 C):1
Dew Point: 57 F (14 C)
Relative Humidity: 20%
Pressure (altimeter): 29.85 in. Hg (1010 hPa)
ob: KGYR 282347Z 10008G15KT 10SM SCT100 SCT200 41/14 A2985
cycle: 0

Station Type Date Time Source
KGYR TAF UTC NOAA

Error!

Example: see airport list